Time;durP1;ratioP1;P1;durP2;ratioP2;P2;SDS_P1;SDS_P2;PMS_P1;PMS_P2;Temp;Humidity;BMP_temperature;BMP_pressure;BME280_temperature;BME280_humidity;BME280_pressure;Samples;Min_cycle;Max_cycle;Signal;HPM_P1;HPM_P2
2021/10/22 00:00:46;;;;;;;22.02;3.38;;;6.50;99.90;;;;;;5084142;28;20043;-46
2021/10/22 00:03:11;;;;;;;17.30;3.88;;;6.50;99.90;;;;;;5084790;28;20478;-45
2021/10/22 00:05:37;;;;;;;13.50;2.88;;;6.50;99.90;;;;;;5088486;28;20027;-46
2021/10/22 00:08:03;;;;;;;12.45;3.45;;;6.50;99.90;;;;;;5082864;28;20111;-47
2021/10/22 00:10:28;;;;;;;14.15;3.17;;;6.50;99.90;;;;;;5074578;28;20120;-45
2021/10/22 00:12:54;;;;;;;17.52;3.40;;;6.50;99.90;;;;;;5081897;28;20021;-45
2021/10/22 00:15:19;;;;;;;12.80;3.63;;;6.50;99.90;;;;;;5091005;28;20027;-46
2021/10/22 00:17:45;;;;;;;13.50;3.60;;;6.50;99.90;;;;;;5090453;28;20611;-46
2021/10/22 00:20:11;;;;;;;14.60;3.22;;;6.50;99.90;;;;;;5089629;28;20393;-45
2021/10/22 00:22:37;;;;;;;15.52;3.03;;;6.60;99.90;;;;;;5081464;28;20107;-45
2021/10/22 00:25:04;;;;;;;12.05;3.03;;;6.60;99.90;;;;;;5083648;28;20052;-45
2021/10/22 00:27:30;;;;;;;17.70;3.92;;;6.60;99.90;;;;;;5090069;28;20501;-46
2021/10/22 00:29:55;;;;;;;21.83;3.35;;;6.60;99.90;;;;;;5085868;28;20016;-48
2021/10/22 00:32:21;;;;;;;24.42;3.42;;;6.50;99.90;;;;;;5081063;28;20024;-48
2021/10/22 00:34:46;;;;;;;14.57;2.90;;;6.50;99.90;;;;;;5088764;28;20064;-48
2021/10/22 00:37:12;;;;;;;17.40;3.05;;;6.50;99.90;;;;;;5081622;28;20281;-46
2021/10/22 00:39:37;;;;;;;11.68;2.97;;;6.50;99.90;;;;;;5088477;28;20043;-46
2021/10/22 00:42:07;;;;;;;16.60;3.28;;;6.50;99.90;;;;;;5082318;28;20115;-47
2021/10/22 00:44:32;;;;;;;10.90;2.55;;;6.60;99.90;;;;;;5090524;28;20038;-45
2021/10/22 00:46:58;;;;;;;18.25;3.15;;;6.60;99.90;;;;;;5070425;28;20494;-46
2021/10/22 00:49:24;;;;;;;18.58;3.05;;;6.60;99.90;;;;;;5085546;28;20020;-47
2021/10/22 00:51:50;;;;;;;16.88;2.97;;;6.60;99.90;;;;;;5072334;28;20047;-45
2021/10/22 00:54:16;;;;;;;12.32;3.28;;;6.60;99.90;;;;;;5084464;28;20499;-45
2021/10/22 00:56:42;;;;;;;11.57;2.50;;;6.50;99.90;;;;;;5080425;28;20034;-46
2021/10/22 00:59:08;;;;;;;19.48;3.20;;;6.50;99.90;;;;;;5082594;28;20095;-45
2021/10/22 01:01:40;;;;;;;18.63;2.88;;;6.50;99.90;;;;;;5082374;28;20047;-48
2021/10/22 01:04:07;;;;;;;16.05;2.95;;;6.50;99.90;;;;;;5081532;28;20035;-46
2021/10/22 01:06:37;;;;;;;15.30;2.63;;;6.50;99.90;;;;;;5088605;28;20016;-45
2021/10/22 01:09:06;;;;;;;20.10;4.13;;;6.50;99.90;;;;;;5089356;28;20590;-45
2021/10/22 01:11:33;;;;;;;15.85;2.78;;;6.50;99.90;;;;;;5072602;28;20508;-44
2021/10/22 01:14:01;;;;;;;12.88;2.92;;;6.50;99.90;;;;;;5081701;28;20386;-46
2021/10/22 01:16:27;;;;;;;15.73;2.75;;;6.40;99.90;;;;;;5089992;28;20020;-44
2021/10/22 01:18:52;;;;;;;14.98;2.80;;;6.50;99.90;;;;;;5089394;28;20381;-45
2021/10/22 01:21:18;;;;;;;14.60;3.75;;;6.40;99.90;;;;;;5089854;28;20031;-45
2021/10/22 01:23:43;;;;;;;12.55;2.50;;;6.40;99.90;;;;;;5076815;28;20144;-45
2021/10/22 01:26:09;;;;;;;20.67;2.80;;;6.40;99.90;;;;;;5082860;28;20103;-45
2021/10/22 01:28:34;;;;;;;20.30;2.90;;;6.40;99.90;;;;;;5078764;28;20054;-47
2021/10/22 01:31:00;;;;;;;9.48;3.13;;;6.40;99.90;;;;;;5081612;28;20528;-45
2021/10/22 01:33:27;;;;;;;13.10;3.10;;;6.40;99.90;;;;;;5082679;28;20028;-45
2021/10/22 01:35:52;;;;;;;14.88;3.25;;;6.40;99.90;;;;;;5081316;28;20031;-45
2021/10/22 01:38:23;;;;;;;19.02;2.67;;;6.40;99.90;;;;;;5079384;28;20475;-45
2021/10/22 01:40:53;;;;;;;14.32;3.30;;;6.40;99.90;;;;;;5076186;28;20043;-45
2021/10/22 01:43:20;;;;;;;15.43;2.83;;;6.40;99.90;;;;;;5066450;28;20037;-44
2021/10/22 01:45:46;;;;;;;10.65;2.83;;;6.40;99.90;;;;;;5076703;28;20351;-44
2021/10/22 01:48:11;;;;;;;22.20;3.72;;;6.40;99.90;;;;;;5087401;28;20487;-45
2021/10/22 01:50:37;;;;;;;14.30;3.35;;;6.40;99.90;;;;;;5075160;28;20021;-45
2021/10/22 01:53:03;;;;;;;16.42;2.92;;;6.50;99.90;;;;;;5089286;28;20020;-45
2021/10/22 01:55:28;;;;;;;20.60;3.33;;;6.40;99.90;;;;;;5078255;28;20418;-45
2021/10/22 01:57:54;;;;;;;18.80;3.38;;;6.40;99.90;;;;;;5087889;28;20028;-45
2021/10/22 02:00:19;;;;;;;17.20;3.35;;;6.40;99.90;;;;;;5073359;28;20359;-44
2021/10/22 02:02:45;;;;;;;15.77;3.65;;;6.40;99.90;;;;;;5080255;28;20032;-45
2021/10/22 02:05:10;;;;;;;13.90;3.10;;;6.40;99.90;;;;;;5076086;28;20397;-45
2021/10/22 02:07:36;;;;;;;20.38;2.90;;;6.30;99.90;;;;;;5078220;28;20520;-44
2021/10/22 02:10:02;;;;;;;12.05;3.60;;;6.40;99.90;;;;;;5076461;28;20081;-45
2021/10/22 02:12:28;;;;;;;17.80;2.72;;;6.40;99.90;;;;;;5080973;28;20093;-45
2021/10/22 02:14:53;;;;;;;15.07;2.75;;;6.40;99.90;;;;;;5079264;28;20024;-45
2021/10/22 02:17:19;;;;;;;11.88;3.03;;;6.30;99.90;;;;;;5079666;28;20043;-44
2021/10/22 02:19:44;;;;;;;9.68;2.45;;;6.40;99.90;;;;;;5080420;28;20610;-45
2021/10/22 02:22:10;;;;;;;13.63;3.08;;;6.40;99.90;;;;;;5080209;28;20107;-45
2021/10/22 02:24:37;;;;;;;16.23;2.97;;;6.50;99.90;;;;;;5081598;28;20106;-44
2021/10/22 02:27:03;;;;;;;16.20;2.97;;;6.40;99.90;;;;;;5079772;28;20389;-45
2021/10/22 02:29:29;;;;;;;11.82;2.95;;;6.40;99.90;;;;;;5088444;28;20024;-44
2021/10/22 02:31:54;;;;;;;14.50;3.47;;;6.40;99.90;;;;;;5068364;28;20105;-45
2021/10/22 02:34:21;;;;;;;17.58;5.35;;;6.40;99.90;;;;;;5083239;28;20043;-46
2021/10/22 02:36:46;;;;;;;16.95;3.22;;;6.40;99.90;;;;;;5070064;28;20028;-45
2021/10/22 02:39:12;;;;;;;16.98;2.67;;;6.40;99.90;;;;;;5082074;28;20032;-45
2021/10/22 02:41:38;;;;;;;12.25;2.22;;;6.40;99.90;;;;;;5082305;28;20034;-44
2021/10/22 02:44:04;;;;;;;17.20;3.35;;;6.40;99.90;;;;;;5081219;28;20065;-45
2021/10/22 02:46:30;;;;;;;13.68;2.85;;;6.40;99.90;;;;;;5086806;28;20028;-45
2021/10/22 02:48:56;;;;;;;14.65;3.25;;;6.50;99.90;;;;;;5079435;28;20020;-48
2021/10/22 02:51:22;;;;;;;11.27;3.75;;;6.40;99.90;;;;;;5075747;28;20023;-45
2021/10/22 02:53:47;;;;;;;20.48;3.25;;;6.40;99.90;;;;;;5081570;28;20545;-46
2021/10/22 02:56:13;;;;;;;16.52;3.42;;;6.40;99.90;;;;;;5086439;28;20025;-46
2021/10/22 02:58:38;;;;;;;14.50;2.70;;;6.40;99.90;;;;;;5073603;28;20393;-45
2021/10/22 03:01:05;;;;;;;11.40;2.80;;;6.30;99.90;;;;;;5070357;28;20095;-44
2021/10/22 03:03:31;;;;;;;19.40;2.83;;;6.40;99.90;;;;;;5076450;28;20393;-45
2021/10/22 03:05:56;;;;;;;15.23;3.08;;;6.40;99.90;;;;;;5090433;28;20270;-46
2021/10/22 03:08:22;;;;;;;15.30;2.53;;;6.40;99.90;;;;;;5073227;28;20498;-45
2021/10/22 03:10:47;;;;;;;19.77;3.55;;;6.40;99.90;;;;;;5091128;28;20024;-46
2021/10/22 03:13:13;;;;;;;18.38;3.25;;;6.40;99.90;;;;;;5078879;28;20128;-46
2021/10/22 03:15:38;;;;;;;14.85;2.75;;;6.40;99.90;;;;;;5089692;28;20473;-46
2021/10/22 03:18:04;;;;;;;11.50;2.90;;;6.50;99.90;;;;;;5080170;28;20032;-45
2021/10/22 03:20:31;;;;;;;17.98;3.30;;;6.50;99.90;;;;;;5086888;28;20055;-45
2021/10/22 03:22:56;;;;;;;14.45;3.28;;;6.40;99.90;;;;;;5082916;28;20402;-45
2021/10/22 03:25:22;;;;;;;19.08;2.63;;;6.50;99.90;;;;;;5085770;28;20036;-47
2021/10/22 03:27:48;;;;;;;10.15;3.05;;;6.50;99.90;;;;;;5087188;28;20024;-44
2021/10/22 03:30:14;;;;;;;16.10;3.28;;;6.50;99.90;;;;;;5085824;28;20049;-45
2021/10/22 03:32:40;;;;;;;22.90;3.75;;;6.50;99.90;;;;;;5073916;28;20028;-44
2021/10/22 03:35:06;;;;;;;16.77;2.88;;;6.50;99.90;;;;;;5083354;28;20035;-44
2021/10/22 03:37:33;;;;;;;13.80;2.95;;;6.50;99.90;;;;;;5076208;28;20383;-46
2021/10/22 03:39:58;;;;;;;16.85;3.25;;;6.40;99.90;;;;;;5083517;28;20031;-45
2021/10/22 03:42:24;;;;;;;17.63;3.03;;;6.40;99.90;;;;;;5087901;28;20024;-46
2021/10/22 03:44:49;;;;;;;17.08;3.30;;;6.40;99.90;;;;;;5081055;28;20036;-46
2021/10/22 03:47:15;;;;;;;13.68;2.85;;;6.40;99.90;;;;;;5091116;28;20024;-45
2021/10/22 03:49:40;;;;;;;30.40;4.22;;;6.40;99.90;;;;;;5080992;28;20039;-45
2021/10/22 03:52:06;;;;;;;16.85;2.72;;;6.40;99.90;;;;;;5091517;28;20024;-45
2021/10/22 03:54:31;;;;;;;19.48;3.60;;;6.40;99.90;;;;;;5084893;28;20032;-44
2021/10/22 03:56:57;;;;;;;9.73;2.47;;;6.40;99.90;;;;;;5079350;28;20136;-48
2021/10/22 03:59:22;;;;;;;15.63;3.45;;;6.40;99.90;;;;;;5075073;28;20478;-46
2021/10/22 04:01:50;;;;;;;14.70;4.90;;;6.40;99.90;;;;;;5082412;28;20497;-48
2021/10/22 04:04:16;;;;;;;21.58;3.28;;;6.40;99.90;;;;;;5082200;28;20027;-47
2021/10/22 04:06:41;;;;;;;14.82;3.20;;;6.50;99.90;;;;;;5088926;28;20082;-45
2021/10/22 04:09:08;;;;;;;15.95;3.58;;;6.50;99.90;;;;;;5083253;28;20513;-45
2021/10/22 04:11:34;;;;;;;20.42;3.30;;;6.40;99.90;;;;;;5082655;28;20107;-46
2021/10/22 04:14:01;;;;;;;14.18;3.80;;;6.50;99.90;;;;;;5087356;28;20066;-46
2021/10/22 04:16:27;;;;;;;18.67;3.55;;;6.40;99.90;;;;;;5080887;28;20062;-45
2021/10/22 04:18:53;;;;;;;13.02;3.45;;;6.50;99.90;;;;;;5083695;28;20027;-45
2021/10/22 04:21:18;;;;;;;21.35;3.97;;;6.50;99.90;;;;;;5073756;28;20031;-47
2021/10/22 04:23:45;;;;;;;15.80;3.90;;;6.40;99.90;;;;;;5086986;28;20036;-45
2021/10/22 04:26:11;;;;;;;18.17;3.85;;;6.50;99.90;;;;;;5072800;28;20378;-45
2021/10/22 04:28:37;;;;;;;18.83;4.10;;;6.50;99.90;;;;;;5087318;28;20055;-46
2021/10/22 04:31:02;;;;;;;21.48;3.80;;;6.50;99.90;;;;;;5078031;28;20082;-48
2021/10/22 04:33:28;;;;;;;22.63;4.25;;;6.50;99.90;;;;;;5074262;28;20028;-44
2021/10/22 04:35:53;;;;;;;17.08;4.05;;;6.50;99.90;;;;;;5076247;28;20028;-45
2021/10/22 04:40:45;;;;;;;19.45;5.15;;;6.50;99.90;;;;;;5078992;28;20033;-45
2021/10/22 04:43:16;;;;;;;14.27;4.00;;;6.50;99.90;;;;;;5080715;28;20020;-45
2021/10/22 04:45:43;;;;;;;21.23;4.55;;;6.50;99.90;;;;;;5088799;28;20263;-45
2021/10/22 04:48:11;;;;;;;15.05;4.20;;;6.50;99.90;;;;;;5089699;28;20111;-45
2021/10/22 04:50:42;;;;;;;22.33;4.15;;;6.50;99.90;;;;;;5077108;28;20025;-45
2021/10/22 04:53:08;;;;;;;17.38;4.10;;;6.60;99.90;;;;;;5081709;28;20023;-45
2021/10/22 04:55:34;;;;;;;15.77;4.15;;;6.60;99.90;;;;;;5086767;28;20050;-45
2021/10/22 04:58:00;;;;;;;17.85;4.55;;;6.60;99.90;;;;;;5080833;28;20031;-46
2021/10/22 05:00:25;;;;;;;10.95;4.05;;;6.70;99.90;;;;;;5090449;28;20035;-45
2021/10/22 05:02:51;;;;;;;20.77;4.95;;;6.70;99.90;;;;;;5076268;28;20040;-46
2021/10/22 05:05:16;;;;;;;21.13;5.97;;;6.70;99.90;;;;;;5081846;28;20031;-47
2021/10/22 05:07:42;;;;;;;12.88;4.47;;;6.70;99.90;;;;;;5084247;28;20048;-45
2021/10/22 05:10:09;;;;;;;21.38;5.03;;;6.70;99.90;;;;;;5081347;28;20028;-47
2021/10/22 05:12:35;;;;;;;20.50;4.47;;;6.70;99.90;;;;;;5086559;28;20077;-44
2021/10/22 05:15:02;;;;;;;22.65;4.60;;;6.70;99.90;;;;;;5080307;28;20035;-46
2021/10/22 05:17:28;;;;;;;18.27;4.10;;;6.70;99.90;;;;;;5089122;28;20241;-46
2021/10/22 05:19:54;;;;;;;15.48;4.57;;;6.70;99.90;;;;;;5079873;28;20505;-44
2021/10/22 05:22:20;;;;;;;16.83;4.18;;;6.70;99.90;;;;;;5088489;28;20110;-47
2021/10/22 05:24:47;;;;;;;18.38;4.35;;;6.70;99.90;;;;;;5074265;28;20028;-47
2021/10/22 05:27:12;;;;;;;18.08;4.82;;;6.80;99.90;;;;;;5083071;28;20075;-45
2021/10/22 05:29:38;;;;;;;21.50;4.70;;;6.80;99.90;;;;;;5079149;28;20525;-45
2021/10/22 05:32:04;;;;;;;15.60;4.43;;;6.90;99.90;;;;;;5081937;28;20115;-46
2021/10/22 05:34:29;;;;;;;17.92;5.70;;;6.90;99.90;;;;;;5081160;28;20059;-46
2021/10/22 05:36:55;;;;;;;22.98;5.35;;;7.00;99.90;;;;;;5080914;28;20024;-45
2021/10/22 05:39:21;;;;;;;18.77;4.95;;;6.90;99.90;;;;;;5079531;28;20268;-48
2021/10/22 05:41:48;;;;;;;20.65;4.65;;;6.90;99.90;;;;;;5081203;28;20596;-45
2021/10/22 05:44:15;;;;;;;15.52;4.47;;;6.90;99.90;;;;;;5081629;28;20044;-44
2021/10/22 05:46:40;;;;;;;13.30;4.75;;;6.90;99.90;;;;;;5081300;28;20023;-45
2021/10/22 05:49:06;;;;;;;16.67;4.45;;;6.80;99.90;;;;;;5085853;28;20103;-45
2021/10/22 05:51:31;;;;;;;20.40;5.15;;;6.90;99.90;;;;;;5079800;28;20538;-48
2021/10/22 05:53:57;;;;;;;15.50;4.78;;;6.90;99.90;;;;;;5067715;28;20041;-46
2021/10/22 05:56:22;;;;;;;17.52;5.13;;;6.90;99.90;;;;;;5064752;28;20028;-45
2021/10/22 05:58:48;;;;;;;16.15;4.43;;;6.90;99.90;;;;;;5058686;28;20041;-45
2021/10/22 06:01:13;;;;;;;21.55;4.35;;;6.90;99.90;;;;;;5073319;28;20405;-46
2021/10/22 06:03:39;;;;;;;16.50;3.75;;;6.90;99.90;;;;;;5049734;28;20032;-46
2021/10/22 06:06:06;;;;;;;22.60;4.90;;;6.90;99.90;;;;;;5069557;28;20099;-45
2021/10/22 06:08:31;;;;;;;14.57;3.85;;;6.90;99.90;;;;;;5084781;28;20024;-48
2021/10/22 06:10:57;;;;;;;14.43;3.53;;;6.90;99.90;;;;;;5078292;28;20020;-47
2021/10/22 06:13:24;;;;;;;15.60;3.42;;;6.90;99.90;;;;;;5084029;28;20020;-46
2021/10/22 06:15:50;;;;;;;20.67;3.80;;;6.90;99.90;;;;;;5082738;28;20066;-44
2021/10/22 06:18:17;;;;;;;18.30;4.03;;;7.00;99.90;;;;;;5080689;28;20392;-45
2021/10/22 06:21:01;;;;;;;21.35;4.25;;;7.00;99.90;;;;;;5081575;28;20471;-44
2021/10/22 06:26:11;;;;;;;13.90;3.03;;;7.10;99.90;;;;;;5062221;28;20032;-46
2021/10/22 06:28:37;;;;;;;13.25;3.00;;;7.10;99.90;;;;;;5062038;28;20052;-44
2021/10/22 06:31:02;;;;;;;10.55;2.25;;;7.10;99.90;;;;;;5058596;28;20471;-46
2021/10/22 06:33:28;;;;;;;15.23;3.72;;;7.10;99.90;;;;;;5058187;28;20379;-46
2021/10/22 06:35:54;;;;;;;8.40;2.40;;;7.20;99.90;;;;;;5059179;28;20032;-45
2021/10/22 06:38:21;;;;;;;10.90;2.58;;;7.20;99.90;;;;;;5058748;28;20020;-45
2021/10/22 06:40:46;;;;;;;14.20;3.00;;;7.30;99.90;;;;;;5061522;28;20020;-46
2021/10/22 06:43:13;;;;;;;13.77;2.95;;;7.30;99.90;;;;;;5067490;28;20028;-47
2021/10/22 06:45:38;;;;;;;17.08;3.28;;;7.30;99.90;;;;;;5061633;28;20028;-45
2021/10/22 06:48:05;;;;;;;12.90;2.70;;;7.40;99.90;;;;;;5062455;28;20078;-45
2021/10/22 06:50:31;;;;;;;9.38;2.92;;;7.40;99.90;;;;;;5058885;28;20048;-48
2021/10/22 06:52:56;;;;;;;14.23;2.88;;;7.50;99.90;;;;;;5061320;28;20060;-46
2021/10/22 06:55:22;;;;;;;16.20;2.80;;;7.60;99.90;;;;;;5060473;28;20028;-45
2021/10/22 06:57:48;;;;;;;15.55;2.45;;;7.80;99.90;;;;;;5065675;28;20083;-45
2021/10/22 07:00:14;;;;;;;14.65;3.15;;;7.90;99.90;;;;;;5050810;28;20037;-46
2021/10/22 07:02:49;;;;;;;12.00;2.80;;;8.10;99.90;;;;;;5074771;28;20474;-45
2021/10/22 07:05:34;;;;;;;15.13;3.30;;;8.20;99.90;;;;;;5087071;28;20016;-44
2021/10/22 07:08:02;;;;;;;13.10;2.70;;;8.30;99.90;;;;;;5078188;28;20015;-45
2021/10/22 07:10:29;;;;;;;14.07;2.70;;;8.40;99.90;;;;;;5080236;28;20474;-45
2021/10/22 07:12:55;;;;;;;17.15;3.55;;;8.50;99.90;;;;;;5086733;28;20020;-47
2021/10/22 07:15:21;;;;;;;12.45;3.35;;;8.50;99.90;;;;;;5079902;28;20058;-47
2021/10/22 07:17:46;;;;;;;11.00;3.15;;;8.50;99.90;;;;;;5082618;28;20250;-45
2021/10/22 07:20:13;;;;;;;14.70;3.05;;;8.60;99.90;;;;;;5070142;28;20056;-45
2021/10/22 07:22:50;;;;;;;11.50;2.35;;;8.60;99.90;;;;;;5086045;28;20028;-46
2021/10/22 07:25:16;;;;;;;16.65;2.67;;;8.70;99.90;;;;;;5070465;28;20029;-45
2021/10/22 07:27:42;;;;;;;12.25;2.53;;;8.90;99.90;;;;;;5085615;28;20064;-46
2021/10/22 07:30:08;;;;;;;14.88;2.65;;;9.00;99.90;;;;;;5077380;28;20048;-45
2021/10/22 07:32:34;;;;;;;10.50;2.30;;;9.10;99.90;;;;;;5085033;28;20062;-45
2021/10/22 07:34:59;;;;;;;13.60;2.25;;;9.10;99.90;;;;;;5083104;28;20086;-45
2021/10/22 07:37:25;;;;;;;15.65;3.22;;;9.10;99.90;;;;;;5080289;28;20032;-46
2021/10/22 07:39:51;;;;;;;15.00;3.03;;;9.20;99.90;;;;;;5079457;28;20082;-45
2021/10/22 07:42:17;;;;;;;9.00;2.75;;;9.20;99.90;;;;;;5082101;28;20109;-45
2021/10/22 07:44:43;;;;;;;12.73;3.47;;;9.20;99.90;;;;;;5089477;28;20028;-44
2021/10/22 07:47:09;;;;;;;11.38;2.97;;;9.20;99.90;;;;;;5082630;28;20081;-45
2021/10/22 07:49:34;;;;;;;18.05;2.63;;;9.30;99.90;;;;;;5091352;28;20111;-46
2021/10/22 07:52:00;;;;;;;19.13;2.67;;;9.20;99.90;;;;;;5073570;28;20471;-46
2021/10/22 07:54:26;;;;;;;22.25;3.90;;;9.30;99.90;;;;;;5085261;28;20032;-46
2021/10/22 07:56:51;;;;;;;8.55;2.75;;;9.40;99.90;;;;;;5085708;28;20035;-48
2021/10/22 07:59:17;;;;;;;13.40;2.63;;;9.40;99.90;;;;;;5081527;28;20028;-45
2021/10/22 08:01:44;;;;;;;13.38;2.92;;;9.30;99.90;;;;;;5089089;28;20327;-45
2021/10/22 08:04:10;;;;;;;8.75;2.63;;;9.30;99.90;;;;;;5082062;28;20039;-45
2021/10/22 08:06:37;;;;;;;19.80;3.13;;;9.30;99.90;;;;;;5089187;28;20533;-45
2021/10/22 08:09:03;;;;;;;11.23;2.20;;;9.30;99.90;;;;;;5070719;28;20086;-48
2021/10/22 08:11:29;;;;;;;15.60;3.67;;;9.30;99.90;;;;;;5087091;28;20031;-45
2021/10/22 08:13:54;;;;;;;11.00;3.10;;;9.30;99.90;;;;;;5073489;28;20553;-45
2021/10/22 08:16:20;;;;;;;10.32;2.80;;;9.30;99.90;;;;;;5085510;28;20024;-45
2021/10/22 08:18:47;;;;;;;10.70;2.75;;;9.40;99.90;;;;;;5075856;28;20115;-46
2021/10/22 08:23:42;;;;;;;13.52;2.40;;;9.40;99.90;;;;;;5081392;28;20050;-46
2021/10/22 08:26:07;;;;;;;8.95;2.50;;;9.50;99.90;;;;;;5082197;28;20016;-45
2021/10/22 08:28:33;;;;;;;8.40;2.15;;;9.50;99.90;;;;;;5085584;28;20032;-47
2021/10/22 08:30:58;;;;;;;12.63;3.92;;;9.50;99.90;;;;;;5082163;28;20573;-46
2021/10/22 08:33:25;;;;;;;9.82;2.85;;;9.60;99.90;;;;;;5077088;28;20024;-47
2021/10/22 08:35:52;;;;;;;12.38;2.67;;;9.80;99.90;;;;;;5075816;28;20363;-45
2021/10/22 08:38:18;;;;;;;12.80;2.80;;;9.80;99.90;;;;;;5081867;28;20035;-46
2021/10/22 08:40:43;;;;;;;15.05;2.30;;;9.90;99.90;;;;;;5077256;28;20437;-47
2021/10/22 08:43:09;;;;;;;12.77;3.17;;;10.10;99.90;;;;;;5070438;28;20028;-46
2021/10/22 08:45:35;;;;;;;10.68;2.78;;;10.30;99.90;;;;;;5074207;28;20039;-47
2021/10/22 08:48:08;;;;;;;12.52;2.50;;;10.50;99.90;;;;;;5083349;28;20039;-45
2021/10/22 08:50:35;;;;;;;11.00;2.63;;;10.30;99.90;;;;;;5072825;28;20024;-47
2021/10/22 08:53:01;;;;;;;12.02;2.63;;;10.50;99.90;;;;;;5090453;28;20069;-46
2021/10/22 08:55:27;;;;;;;10.05;2.17;;;10.60;99.90;;;;;;5079404;28;20025;-47
2021/10/22 08:57:52;;;;;;;10.45;2.67;;;10.90;99.90;;;;;;5088970;28;20024;-46
2021/10/22 09:00:21;;;;;;;5.88;2.20;;;10.90;99.90;;;;;;5073139;28;20112;-46
2021/10/22 09:02:49;;;;;;;14.18;3.33;;;10.80;99.90;;;;;;5072187;28;20037;-45
2021/10/22 09:05:23;;;;;;;20.20;3.53;;;11.00;99.90;;;;;;5063396;28;20028;-46
2021/10/22 09:07:54;;;;;;;14.07;2.58;;;11.30;99.90;;;;;;5076486;28;20028;-46
2021/10/22 09:10:23;;;;;;;9.52;2.50;;;11.30;99.90;;;;;;5074986;28;20029;-45
2021/10/22 09:12:51;;;;;;;13.13;2.30;;;11.50;99.90;;;;;;5079012;28;20170;-47
2021/10/22 09:15:21;;;;;;;14.27;3.08;;;11.40;99.90;;;;;;5085166;28;20044;-45
2021/10/22 09:17:47;;;;;;;11.32;2.67;;;11.40;99.90;;;;;;5075531;28;20029;-45
2021/10/22 09:20:14;;;;;;;8.48;2.33;;;11.40;99.90;;;;;;5088724;28;20024;-47
2021/10/22 09:22:46;;;;;;;14.88;3.60;;;11.30;99.90;;;;;;5072047;28;20028;-49
2021/10/22 09:25:12;;;;;;;11.32;3.33;;;11.30;99.90;;;;;;5075522;28;20032;-46
2021/10/22 09:27:39;;;;;;;11.90;3.25;;;11.20;99.90;;;;;;5054263;28;20108;-47
2021/10/22 09:30:25;;;;;;;11.15;2.25;;;11.30;99.90;;;;;;5062704;28;20623;-47
2021/10/22 09:33:18;;;;;;;12.25;2.45;;;11.20;99.90;;;;;;5057610;28;20118;-46
2021/10/22 09:35:53;;;;;;;9.60;2.30;;;10.70;99.90;;;;;;5041636;28;20033;-46
2021/10/22 09:38:27;;;;;;;14.55;2.78;;;10.60;99.90;;;;;;5058766;28;20024;-45
2021/10/22 09:40:59;;;;;;;13.80;3.08;;;10.50;99.90;;;;;;5080683;28;20028;-45
2021/10/22 09:43:30;;;;;;;9.68;2.83;;;10.40;99.90;;;;;;5085148;28;20028;-46
2021/10/22 09:46:29;;;;;;;6.22;2.35;;;10.40;99.90;;;;;;5075668;28;20135;-45
2021/10/22 09:48:58;;;;;;;6.97;2.80;;;10.40;99.90;;;;;;5050146;28;20060;-46
2021/10/22 09:51:30;;;;;;;13.82;3.47;;;10.40;99.90;;;;;;5078300;28;20028;-45
2021/10/22 09:54:02;;;;;;;11.88;3.05;;;10.60;99.90;;;;;;5072235;28;20012;-46
2021/10/22 09:56:29;;;;;;;9.15;3.42;;;11.20;99.90;;;;;;5079470;28;20027;-47
2021/10/22 09:59:23;;;;;;;14.45;2.78;;;11.30;99.90;;;;;;5071414;28;20024;-47
2021/10/22 10:01:49;;;;;;;11.02;2.72;;;11.50;99.90;;;;;;5050214;28;20037;-45
2021/10/22 10:04:15;;;;;;;15.45;2.70;;;11.60;99.90;;;;;;5068989;28;20026;-45
2021/10/22 10:06:41;;;;;;;13.38;3.15;;;12.10;99.90;;;;;;5080259;28;20266;-46
2021/10/22 10:09:09;;;;;;;13.18;3.60;;;12.50;99.70;;;;;;5084519;28;20020;-46
2021/10/22 10:11:36;;;;;;;13.02;3.38;;;12.90;99.00;;;;;;5076255;28;20020;-46
2021/10/22 10:14:02;;;;;;;14.00;2.92;;;12.70;98.60;;;;;;5069814;28;20032;-46
2021/10/22 10:16:32;;;;;;;12.07;2.35;;;12.80;98.50;;;;;;5078457;28;20123;-46
2021/10/22 10:19:09;;;;;;;12.95;3.33;;;12.30;99.60;;;;;;5080113;28;20025;-45
2021/10/22 10:21:40;;;;;;;14.20;2.67;;;12.30;99.40;;;;;;5073343;28;20025;-45
2021/10/22 10:24:07;;;;;;;14.82;3.33;;;12.30;99.70;;;;;;5064037;28;20048;-45
2021/10/22 10:26:35;;;;;;;9.60;3.03;;;12.30;99.70;;;;;;5072849;28;20052;-46
2021/10/22 10:29:07;;;;;;;8.90;3.35;;;12.20;99.90;;;;;;5082328;28;20020;-47
2021/10/22 10:31:41;;;;;;;13.90;2.47;;;12.00;99.90;;;;;;5072597;28;20025;-46
2021/10/22 10:34:26;;;;;;;17.58;3.00;;;11.70;99.90;;;;;;5088261;28;20051;-46
2021/10/22 10:36:54;;;;;;;11.90;3.42;;;11.70;99.90;;;;;;5085758;28;20021;-45
2021/10/22 10:39:41;;;;;;;12.88;2.63;;;11.80;99.90;;;;;;5068885;28;20570;-47
2021/10/22 10:42:34;;;;;;;16.63;2.80;;;11.90;99.90;;;;;;5052359;28;20478;-47
2021/10/22 10:45:14;;;;;;;9.85;2.78;;;12.10;99.90;;;;;;5068167;28;20073;-45
2021/10/22 10:48:06;;;;;;;8.30;2.85;;;12.10;99.90;;;;;;5060059;28;20033;-46
2021/10/22 10:51:04;;;;;;;21.58;3.38;;;11.90;99.90;;;;;;5077496;28;20036;-47
2021/10/22 10:53:34;;;;;;;12.18;2.50;;;11.70;99.90;;;;;;5080418;28;20074;-46
2021/10/22 10:56:07;;;;;;;9.20;3.13;;;11.40;99.90;;;;;;5072431;28;20012;-46
2021/10/22 10:58:44;;;;;;;6.82;2.70;;;11.40;99.90;;;;;;5086997;28;20028;-46
2021/10/22 11:01:19;;;;;;;6.43;2.33;;;11.40;99.90;;;;;;5088086;28;20247;-47
2021/10/22 11:03:46;;;;;;;13.27;2.53;;;11.20;99.90;;;;;;5071194;28;20035;-46
2021/10/22 11:06:34;;;;;;;15.13;3.35;;;11.10;99.90;;;;;;5081472;28;20610;-45
2021/10/22 11:09:01;;;;;;;8.00;3.03;;;11.00;99.90;;;;;;5069354;28;20013;-47
2021/10/22 11:11:32;;;;;;;7.28;2.53;;;10.90;99.90;;;;;;5075609;28;20416;-46
2021/10/22 11:14:10;;;;;;;11.18;2.15;;;10.90;99.90;;;;;;5067407;28;20036;-48
2021/10/22 11:16:45;;;;;;;10.68;2.53;;;10.90;99.90;;;;;;5076983;28;20032;-45
2021/10/22 11:19:12;;;;;;;12.32;2.92;;;10.80;99.90;;;;;;5090886;28;20031;-45
2021/10/22 11:21:45;;;;;;;13.52;2.92;;;10.90;99.90;;;;;;5091210;28;20016;-46
2021/10/22 11:24:21;;;;;;;14.32;3.95;;;10.80;99.90;;;;;;5091615;28;20028;-49
2021/10/22 11:27:01;;;;;;;9.15;2.53;;;10.80;99.90;;;;;;5090448;28;20030;-46
2021/10/22 11:29:28;;;;;;;;;;;10.60;99.90;;;;;;5075455;28;20029;-45
2021/10/22 11:32:11;;;;;;;11.07;2.60;;;10.60;99.90;;;;;;5090176;28;19911;-45
2021/10/22 11:34:39;;;;;;;15.65;2.75;;;10.60;99.90;;;;;;5074015;28;20470;-46
2021/10/22 11:37:09;;;;;;;7.13;2.42;;;10.60;99.90;;;;;;5082777;28;20024;-47
2021/10/22 11:39:44;;;;;;;7.93;2.33;;;10.60;99.90;;;;;;5077851;28;20055;-50
2021/10/22 11:42:13;;;;;;;12.95;2.95;;;10.50;99.90;;;;;;5061441;28;20069;-46
2021/10/22 11:44:44;;;;;;;6.22;2.45;;;10.50;99.90;;;;;;5067833;28;20460;-47
2021/10/22 11:47:10;;;;;;;6.03;2.28;;;10.50;99.90;;;;;;5083428;28;20028;-45
2021/10/22 11:49:37;;;;;;;10.75;3.15;;;10.50;99.90;;;;;;5075831;28;20036;-45
2021/10/22 11:52:08;;;;;;;16.60;3.42;;;10.40;99.90;;;;;;5082005;28;20059;-45
2021/10/22 11:54:38;;;;;;;;;;;10.30;99.90;;;;;;5071725;28;20037;-45
2021/10/22 11:57:18;;;;;;;11.75;3.45;;;10.20;99.90;;;;;;5049436;28;19904;-44
2021/10/22 11:59:57;;;;;;;9.40;3.10;;;10.00;99.90;;;;;;5078293;28;20486;-45
2021/10/22 12:02:32;;;;;;;16.70;2.90;;;10.00;99.90;;;;;;5088627;28;20168;-46
2021/10/22 12:05:04;;;;;;;14.02;4.25;;;9.90;99.90;;;;;;5071731;28;20386;-46
2021/10/22 12:07:32;;;;;;;10.90;3.08;;;9.80;99.90;;;;;;5085691;28;20557;-47
2021/10/22 12:09:59;;;;;;;11.80;3.05;;;9.80;99.90;;;;;;5079897;28;20008;-46
2021/10/22 12:12:25;;;;;;;11.68;3.20;;;9.80;99.90;;;;;;5081641;28;20028;-49
2021/10/22 12:14:52;;;;;;;10.18;2.40;;;9.80;99.90;;;;;;5067049;28;20587;-48
2021/10/22 12:17:21;;;;;;;14.68;3.92;;;9.80;99.90;;;;;;5069104;28;20170;-48
2021/10/22 12:19:48;;;;;;;10.15;3.60;;;9.80;99.90;;;;;;5078780;28;20101;-46
2021/10/22 12:22:16;;;;;;;20.27;3.25;;;9.80;99.90;;;;;;5089863;28;20020;-46
2021/10/22 12:24:51;;;;;;;8.85;2.78;;;9.90;99.90;;;;;;5089632;28;20036;-45
2021/10/22 12:27:18;;;;;;;13.00;3.22;;;9.90;99.90;;;;;;5083847;28;20381;-46
2021/10/22 12:29:54;;;;;;;11.82;2.90;;;10.00;99.90;;;;;;5076709;28;20490;-45
2021/10/22 12:32:50;;;;;;;16.60;2.88;;;10.00;99.90;;;;;;5086954;28;20028;-45
2021/10/22 12:35:28;;;;;;;16.48;3.28;;;9.80;99.90;;;;;;5070710;28;20267;-48
2021/10/22 12:37:57;;;;;;;15.20;3.22;;;9.70;99.90;;;;;;5067899;28;20023;-46
2021/10/22 12:40:24;;;;;;;12.27;2.95;;;9.60;99.90;;;;;;5069059;28;20390;-46
2021/10/22 12:43:06;;;;;;;19.70;3.67;;;9.60;99.90;;;;;;5063610;28;20780;-47
2021/10/22 12:45:32;;;;;;;13.27;3.03;;;9.50;99.90;;;;;;5071970;28;20036;-46
2021/10/22 12:48:06;;;;;;;13.32;3.78;;;9.40;99.90;;;;;;5061363;28;20028;-48
2021/10/22 12:50:34;;;;;;;9.38;2.85;;;9.40;99.90;;;;;;5049120;28;20395;-45
2021/10/22 12:53:02;;;;;;;13.27;3.63;;;9.30;99.90;;;;;;5048971;28;20693;-46
2021/10/22 12:55:29;;;;;;;7.70;2.78;;;9.20;99.90;;;;;;5049381;28;20021;-45
2021/10/22 12:58:15;;;;;;;18.27;4.93;;;9.20;99.90;;;;;;5048573;28;20395;-48